LIRV

Viterbo Airport

Viterbo, Italy
TAF LIRV 211700Z 2118/2203 17010KT 9999 FEW025
Issued Valid From Valid To
Jul-21 @ 17:00 UTC
(6 hours ago)
Jul-21 @ 18:00 UTC
(5 hours ago)
Jul-22 @ 03:00 UTC
(in 4 hours)
Jul-21 @ 18:00 to Jul-22 @ 03:00
TAF LIRV 211700Z 2118/2203 17010KT 9999 FEW025
Wind Visibility Clouds
170° at 10 knots 10,000+ meters
  • Few at 2,500' AGL
TAF LIRV 211700Z 2118/2203 17010KT 9999 FEW025
Issued Jul-21 @ 17:00 UTC
(6 hours ago)
Valid From Jul-21 @ 18:00 UTC
(5 hours ago)
Valid To Jul-22 @ 03:00 UTC
(in 4 hours)
Jul-21 @ 18:00 - Jul-22 @ 03:00
Wind Visibility
170° at 10 knots 10,000+ meters
Clouds
  • Few at 2,500' AGL